Time;durP1;ratioP1;P1;durP2;ratioP2;P2;SDS_P1;SDS_P2;PMS_P1;PMS_P2;Temp;Humidity;BMP_temperature;BMP_pressure;BME280_temperature;BME280_humidity;BME280_pressure;Samples;Min_cycle;Max_cycle;Signal;HPM_P1;HPM_P2
2024/01/27 00:01:51;;;;;;;6.18;2.00;;;6.00;99.90;;;;;;5091141;28;20625;-76
2024/01/27 00:04:16;;;;;;;8.85;1.77;;;6.00;99.90;;;;;;5073095;28;20548;-77
2024/01/27 00:06:42;;;;;;;6.50;2.03;;;6.00;99.90;;;;;;5073070;28;20176;-77
2024/01/27 00:09:08;;;;;;;5.93;2.27;;;6.00;99.90;;;;;;5090736;28;20230;-77
2024/01/27 00:11:34;;;;;;;8.43;2.60;;;6.00;99.90;;;;;;5072703;28;20215;-76
2024/01/27 00:13:59;;;;;;;7.05;1.70;;;6.00;99.90;;;;;;5090936;28;20184;-76
2024/01/27 00:16:25;;;;;;;5.47;1.80;;;6.00;99.90;;;;;;5072902;28;20223;-76
2024/01/27 00:18:51;;;;;;;3.40;1.30;;;6.00;99.90;;;;;;5055618;28;20179;-76
2024/01/27 00:21:16;;;;;;;6.80;1.80;;;5.90;99.90;;;;;;5072374;28;20264;-76
2024/01/27 00:23:42;;;;;;;4.67;1.60;;;5.90;99.90;;;;;;5072595;28;20178;-77
2024/01/27 00:26:08;;;;;;;7.50;1.70;;;5.90;99.90;;;;;;5090761;28;20171;-76
2024/01/27 00:28:34;;;;;;;4.53;1.57;;;5.90;99.90;;;;;;5090092;28;20171;-76
2024/01/27 00:30:59;;;;;;;4.47;1.43;;;5.90;99.90;;;;;;5072791;28;20172;-77
2024/01/27 00:33:25;;;;;;;6.13;1.90;;;5.90;99.90;;;;;;5056464;28;20210;-76
2024/01/27 00:35:51;;;;;;;4.47;1.50;;;5.80;99.90;;;;;;5093930;28;20180;-76
2024/01/27 00:38:17;;;;;;;5.32;1.50;;;5.80;99.90;;;;;;5072527;28;20187;-77
2024/01/27 00:40:43;;;;;;;8.90;2.60;;;5.80;99.90;;;;;;5090792;28;20204;-76
2024/01/27 00:43:08;;;;;;;8.27;3.37;;;5.80;99.90;;;;;;5072411;28;20206;-76
2024/01/27 00:45:34;;;;;;;9.70;3.30;;;5.80;99.90;;;;;;5090575;28;20183;-76
2024/01/27 00:48:00;;;;;;;8.77;3.00;;;5.80;99.90;;;;;;5072338;28;20171;-77
2024/01/27 00:50:26;;;;;;;7.13;2.85;;;5.70;99.90;;;;;;5090079;28;20179;-77
2024/01/27 00:52:52;;;;;;;4.50;2.63;;;5.70;99.90;;;;;;5090339;28;20245;-77
2024/01/27 00:55:17;;;;;;;6.53;2.87;;;5.70;99.90;;;;;;5072037;28;20692;-77
2024/01/27 00:57:43;;;;;;;7.43;2.03;;;5.70;99.90;;;;;;5072007;28;20168;-78
2024/01/27 01:00:10;;;;;;;5.40;1.83;;;5.60;99.90;;;;;;5072074;28;20218;-78
2024/01/27 01:02:37;;;;;;;8.02;2.25;;;5.60;99.90;;;;;;5072267;28;20613;-75
2024/01/27 01:05:06;;;;;;;4.68;1.65;;;5.60;99.90;;;;;;5072003;28;20166;-75
2024/01/27 01:07:32;;;;;;;8.80;2.05;;;5.60;99.90;;;;;;5071940;28;20590;-75
2024/01/27 01:09:57;;;;;;;6.53;1.90;;;5.60;99.90;;;;;;5089918;28;20172;-75
2024/01/27 01:12:25;;;;;;;6.30;2.13;;;5.60;99.90;;;;;;5090003;28;20724;-75
2024/01/27 01:14:51;;;;;;;4.03;1.20;;;5.60;99.90;;;;;;5072401;28;20582;-75
2024/01/27 01:17:17;;;;;;;4.15;1.40;;;5.50;99.90;;;;;;5055429;28;20217;-75
2024/01/27 01:19:42;;;;;;;4.97;2.07;;;5.60;99.90;;;;;;5071606;28;20163;-75
2024/01/27 01:22:08;;;;;;;7.80;2.03;;;5.50;99.90;;;;;;5055259;28;20191;-75
2024/01/27 01:24:34;;;;;;;10.83;2.23;;;5.50;99.90;;;;;;5071677;28;20588;-75
2024/01/27 01:27:00;;;;;;;3.93;1.30;;;5.50;99.90;;;;;;5090198;28;20172;-75
2024/01/27 01:29:26;;;;;;;3.20;1.73;;;5.50;99.90;;;;;;5089739;28;20259;-77
2024/01/27 01:31:53;;;;;;;6.30;1.70;;;5.50;99.90;;;;;;5090097;28;20187;-77
2024/01/27 01:34:18;;;;;;;5.13;1.45;;;5.50;99.90;;;;;;5072323;28;20621;-77
2024/01/27 01:36:45;;;;;;;6.23;1.60;;;5.40;99.90;;;;;;5081618;22;20288;-74
2024/01/27 01:39:13;;;;;;;8.90;1.50;;;5.40;99.90;;;;;;5089159;28;20183;-74
2024/01/27 01:41:38;;;;;;;5.15;2.60;;;5.40;99.90;;;;;;5073787;28;20297;-74
2024/01/27 01:44:04;;;;;;;5.53;1.83;;;5.40;99.90;;;;;;5110307;28;20202;-74
2024/01/27 01:46:30;;;;;;;8.03;1.50;;;5.40;99.90;;;;;;5118195;28;20583;-74
2024/01/27 01:48:56;;;;;;;8.00;1.50;;;5.40;99.90;;;;;;5109819;28;20569;-74
2024/01/27 01:51:22;;;;;;;10.53;1.50;;;5.40;99.90;;;;;;5091672;28;20179;-75
2024/01/27 01:53:50;;;;;;;7.10;1.30;;;5.40;99.90;;;;;;5074994;28;20583;-74
2024/01/27 01:56:16;;;;;;;6.18;2.35;;;5.40;99.90;;;;;;5110173;28;20179;-74
2024/01/27 01:58:41;;;;;;;6.23;1.43;;;5.30;99.90;;;;;;5074392;28;20209;-75
2024/01/27 02:01:08;;;;;;;4.20;1.60;;;5.30;99.90;;;;;;5062954;28;20629;-76
2024/01/27 02:03:34;;;;;;;12.73;1.63;;;5.30;99.90;;;;;;5111879;28;20575;-74
2024/01/27 02:05:59;;;;;;;5.83;1.80;;;5.30;99.90;;;;;;5098277;28;20171;-75
2024/01/27 02:08:25;;;;;;;6.00;2.00;;;5.30;99.90;;;;;;5078315;28;20218;-74
2024/01/27 02:10:51;;;;;;;5.23;1.47;;;5.30;99.90;;;;;;5084159;28;20182;-74
2024/01/27 02:13:20;;;;;;;6.27;1.60;;;5.30;99.90;;;;;;5087815;28;20217;-75
2024/01/27 02:15:47;;;;;;;6.07;1.52;;;5.20;99.90;;;;;;5094933;28;20748;-75
2024/01/27 02:18:13;;;;;;;6.78;1.92;;;5.20;99.90;;;;;;5113592;28;20222;-75
2024/01/27 02:20:39;;;;;;;4.53;1.20;;;5.20;99.90;;;;;;5094700;28;20679;-74
2024/01/27 02:23:05;;;;;;;9.48;2.42;;;5.20;99.90;;;;;;5113357;28;20530;-74
2024/01/27 02:25:35;;;;;;;7.38;1.60;;;5.20;99.90;;;;;;5077750;28;20179;-75
2024/01/27 02:28:02;;;;;;;8.10;1.80;;;5.20;99.90;;;;;;5113433;28;20277;-75
2024/01/27 02:30:28;;;;;;;6.20;1.60;;;5.20;99.90;;;;;;5077501;28;20227;-75
2024/01/27 02:32:57;;;;;;;7.75;1.65;;;5.20;99.90;;;;;;5091636;28;20176;-75
2024/01/27 02:35:23;;;;;;;4.53;1.30;;;5.10;99.90;;;;;;5112879;28;20178;-75
2024/01/27 02:37:48;;;;;;;10.85;2.95;;;5.10;99.90;;;;;;5069096;28;20209;-75
2024/01/27 02:40:14;;;;;;;9.50;1.57;;;5.10;99.90;;;;;;5087547;28;20669;-75
2024/01/27 02:42:43;;;;;;;6.83;1.60;;;5.10;99.90;;;;;;5111923;28;20242;-75
2024/01/27 02:45:11;;;;;;;5.18;1.70;;;5.10;99.90;;;;;;5097348;28;20630;-75
2024/01/27 02:47:37;;;;;;;6.25;1.60;;;5.10;99.90;;;;;;5112651;28;20256;-75
2024/01/27 02:50:04;;;;;;;6.10;1.27;;;5.10;99.90;;;;;;5094171;28;20171;-75
2024/01/27 02:52:29;;;;;;;7.43;1.58;;;5.00;99.90;;;;;;5112708;28;20179;-74
2024/01/27 02:54:55;;;;;;;5.40;2.17;;;5.00;99.90;;;;;;5094580;28;20216;-74
2024/01/27 02:57:21;;;;;;;5.80;1.83;;;5.00;99.90;;;;;;5094445;28;20608;-75
2024/01/27 02:59:47;;;;;;;6.40;1.73;;;5.00;99.90;;;;;;5093735;28;20163;-75
2024/01/27 03:02:13;;;;;;;5.83;1.73;;;5.00;99.90;;;;;;5077569;28;20962;-75
2024/01/27 03:04:39;;;;;;;8.75;1.90;;;5.00;99.90;;;;;;5112552;28;20175;-75
2024/01/27 03:07:05;;;;;;;5.17;1.87;;;5.00;99.90;;;;;;5090497;28;20279;-74
2024/01/27 03:09:31;;;;;;;6.15;1.70;;;4.90;99.90;;;;;;5068142;28;20226;-75
2024/01/27 03:11:58;;;;;;;4.60;1.65;;;4.90;99.90;;;;;;5094056;28;20175;-74
2024/01/27 03:14:24;;;;;;;3.63;1.63;;;4.90;99.90;;;;;;5077496;28;20176;-74
2024/01/27 03:16:49;;;;;;;7.35;2.13;;;4.90;99.90;;;;;;5114368;27;20249;-74
2024/01/27 03:19:15;;;;;;;10.63;2.10;;;4.80;99.90;;;;;;5073454;28;20645;-75
2024/01/27 03:21:41;;;;;;;5.47;2.40;;;4.80;99.90;;;;;;5079500;28;20210;-75
2024/01/27 03:24:07;;;;;;;9.83;1.87;;;4.80;99.90;;;;;;5073888;28;20624;-75
2024/01/27 03:26:32;;;;;;;6.93;2.70;;;4.80;99.90;;;;;;5109238;28;20581;-74
2024/01/27 03:28:58;;;;;;;5.80;2.00;;;4.70;99.90;;;;;;5111923;28;20646;-74
2024/01/27 03:31:30;;;;;;;5.50;2.00;;;4.80;99.90;;;;;;5112411;28;20545;-75
2024/01/27 03:33:56;;;;;;;8.77;2.63;;;4.70;99.90;;;;;;5110958;28;20270;-74
2024/01/27 03:36:22;;;;;;;7.70;2.40;;;4.70;99.90;;;;;;5093514;28;20212;-75
2024/01/27 03:38:47;;;;;;;6.20;1.87;;;4.70;99.90;;;;;;5111498;28;20589;-75
2024/01/27 03:41:13;;;;;;;14.53;1.97;;;4.70;99.90;;;;;;5094031;28;20185;-75
2024/01/27 03:43:39;;;;;;;6.03;1.77;;;4.70;99.90;;;;;;5093801;28;20182;-75
2024/01/27 03:46:05;;;;;;;6.07;1.73;;;4.70;99.90;;;;;;5093877;28;20207;-74
2024/01/27 03:48:30;;;;;;;6.17;2.60;;;4.60;99.90;;;;;;5111204;28;20864;-75
2024/01/27 03:50:56;;;;;;;9.10;1.70;;;4.60;99.90;;;;;;5072469;28;20207;-75
2024/01/27 03:53:22;;;;;;;4.72;2.13;;;4.60;99.90;;;;;;5089169;28;20167;-75
2024/01/27 03:55:48;;;;;;;5.30;1.80;;;4.60;99.90;;;;;;5112592;28;20227;-75
2024/01/27 03:58:13;;;;;;;8.23;1.70;;;4.60;99.90;;;;;;5101315;28;20218;-75
2024/01/27 04:00:39;;;;;;;4.07;1.97;;;4.60;99.90;;;;;;5092971;28;20175;-76
2024/01/27 04:03:05;;;;;;;5.90;1.60;;;4.60;99.90;;;;;;5093768;28;20174;-75
2024/01/27 04:05:31;;;;;;;3.33;1.70;;;4.60;99.90;;;;;;5111061;28;20186;-75
2024/01/27 04:07:56;;;;;;;5.68;1.67;;;4.60;99.90;;;;;;5093460;28;20660;-75
2024/01/27 04:10:23;;;;;;;7.43;1.70;;;4.60;99.90;;;;;;5075876;28;20198;-75
2024/01/27 04:12:49;;;;;;;6.35;1.65;;;4.60;99.90;;;;;;5103483;28;20174;-76
2024/01/27 04:15:15;;;;;;;4.72;1.80;;;4.50;99.90;;;;;;5111521;28;20194;-75
2024/01/27 04:17:41;;;;;;;5.63;1.77;;;4.50;99.90;;;;;;5074548;28;20230;-75
2024/01/27 04:20:08;;;;;;;6.05;1.67;;;4.50;99.90;;;;;;5093557;28;20544;-75
2024/01/27 04:22:34;;;;;;;5.30;1.80;;;4.50;99.90;;;;;;5092848;28;20253;-75
2024/01/27 04:25:01;;;;;;;6.13;1.60;;;4.50;99.90;;;;;;5111737;28;20178;-75
2024/01/27 04:27:30;;;;;;;4.28;1.48;;;4.50;99.90;;;;;;5122937;28;20179;-75
2024/01/27 04:29:59;;;;;;;6.13;1.92;;;4.50;99.90;;;;;;5077092;28;20202;-75
2024/01/27 04:32:26;;;;;;;6.97;1.75;;;4.50;99.90;;;;;;5073154;28;20171;-75
2024/01/27 04:34:52;;;;;;;6.57;2.10;;;4.40;99.90;;;;;;5094137;28;20182;-75
2024/01/27 04:37:18;;;;;;;10.38;2.05;;;4.40;99.90;;;;;;5094032;28;20279;-75
2024/01/27 04:39:43;;;;;;;6.67;1.77;;;4.40;99.90;;;;;;5109452;28;20201;-75
2024/01/27 04:42:09;;;;;;;4.70;1.50;;;4.40;99.90;;;;;;5066718;28;20193;-75
2024/01/27 04:44:35;;;;;;;9.97;1.90;;;4.30;99.90;;;;;;5108426;28;20211;-75
2024/01/27 04:47:01;;;;;;;5.97;1.93;;;4.30;99.90;;;;;;5110893;28;20199;-75
2024/01/27 04:49:27;;;;;;;4.90;1.60;;;4.30;99.90;;;;;;5071937;28;20586;-75
2024/01/27 04:51:52;;;;;;;4.60;1.73;;;4.30;99.90;;;;;;5091997;28;20187;-75
2024/01/27 04:54:18;;;;;;;3.93;1.67;;;4.30;99.90;;;;;;5089215;28;20597;-75
2024/01/27 04:56:44;;;;;;;11.07;1.80;;;4.30;99.90;;;;;;5108700;28;20691;-75
2024/01/27 04:59:09;;;;;;;8.70;2.00;;;4.30;99.90;;;;;;5071757;28;20168;-75
2024/01/27 05:01:35;;;;;;;4.53;1.70;;;4.30;99.90;;;;;;5091683;28;21228;-75
2024/01/27 05:04:01;;;;;;;7.73;1.70;;;4.30;99.90;;;;;;5064509;28;20601;-74
2024/01/27 05:06:26;;;;;;;8.03;2.20;;;4.30;99.90;;;;;;5088740;28;20175;-75
2024/01/27 05:08:52;;;;;;;6.93;1.93;;;4.30;99.90;;;;;;5109796;28;20777;-75
2024/01/27 05:11:32;;;;;;;2.90;1.43;;;4.30;99.90;;;;;;5072233;28;20203;-75
2024/01/27 05:13:58;;;;;;;5.82;1.60;;;4.30;99.90;;;;;;5092659;28;20225;-74
2024/01/27 05:16:24;;;;;;;8.35;1.83;;;4.30;99.90;;;;;;5087414;28;20617;-74
2024/01/27 05:18:50;;;;;;;7.20;1.47;;;4.20;99.90;;;;;;5073597;28;20174;-74
2024/01/27 05:21:16;;;;;;;6.70;1.50;;;4.30;99.90;;;;;;5075356;28;20544;-74
2024/01/27 05:23:41;;;;;;;7.20;1.73;;;4.20;99.90;;;;;;5090052;28;20278;-75
2024/01/27 05:26:07;;;;;;;8.63;2.00;;;4.20;99.90;;;;;;5105827;28;20183;-74
2024/01/27 05:28:33;;;;;;;4.60;1.53;;;4.20;99.90;;;;;;5098065;28;20604;-74
2024/01/27 05:30:59;;;;;;;5.40;1.63;;;4.20;99.90;;;;;;5092168;28;20206;-75
2024/01/27 05:33:24;;;;;;;5.80;1.43;;;4.20;99.90;;;;;;5092362;28;20943;-75
2024/01/27 05:35:50;;;;;;;6.70;1.73;;;4.20;99.90;;;;;;5094807;28;20167;-74
2024/01/27 05:38:16;;;;;;;5.67;1.53;;;4.20;99.90;;;;;;5079000;28;20206;-74
2024/01/27 05:40:42;;;;;;;7.17;2.00;;;4.20;99.90;;;;;;5095659;28;20232;-74
2024/01/27 05:43:08;;;;;;;4.33;1.30;;;4.20;99.90;;;;;;5114337;28;20577;-74
2024/01/27 05:45:34;;;;;;;6.33;1.60;;;4.20;99.90;;;;;;5113928;28;20594;-74
2024/01/27 05:48:00;;;;;;;5.90;1.50;;;4.20;99.90;;;;;;5092386;28;20649;-74
2024/01/27 05:50:26;;;;;;;4.80;1.37;;;4.20;99.90;;;;;;5098822;28;20257;-74
2024/01/27 05:52:52;;;;;;;3.60;1.42;;;4.20;99.90;;;;;;5095848;28;20655;-74
2024/01/27 05:55:18;;;;;;;5.55;1.33;;;4.20;99.90;;;;;;5092359;28;20183;-74
2024/01/27 05:57:44;;;;;;;7.93;1.70;;;4.20;99.90;;;;;;5078430;28;20195;-74
2024/01/27 06:00:10;;;;;;;6.33;1.13;;;4.20;99.90;;;;;;5095137;28;20558;-74
2024/01/27 06:02:36;;;;;;;4.05;1.58;;;4.10;99.90;;;;;;5095803;28;20193;-75
2024/01/27 06:05:02;;;;;;;3.75;1.48;;;4.10;99.90;;;;;;5095642;28;20171;-74
2024/01/27 06:07:28;;;;;;;7.78;1.55;;;4.10;99.90;;;;;;5113683;28;20290;-74
2024/01/27 06:09:54;;;;;;;8.00;2.13;;;4.10;99.90;;;;;;5078054;28;20660;-75
2024/01/27 06:12:20;;;;;;;5.30;1.43;;;4.10;99.90;;;;;;5092221;28;20176;-74
2024/01/27 06:14:46;;;;;;;3.85;1.20;;;4.10;99.90;;;;;;5093331;28;20199;-74
2024/01/27 06:17:14;;;;;;;2.83;1.35;;;4.10;99.90;;;;;;5075114;28;20188;-75
2024/01/27 06:19:40;;;;;;;2.88;1.52;;;4.10;99.90;;;;;;5091916;28;20179;-75
2024/01/27 06:22:06;;;;;;;3.53;1.40;;;4.10;99.90;;;;;;5078192;28;20182;-75
2024/01/27 06:24:32;;;;;;;3.40;1.50;;;4.10;99.90;;;;;;5095223;28;20629;-75
2024/01/27 06:26:57;;;;;;;6.87;1.30;;;4.10;99.90;;;;;;5098137;28;20238;-75
2024/01/27 06:29:23;;;;;;;3.83;1.40;;;4.10;99.90;;;;;;5091337;28;20183;-76
2024/01/27 06:31:49;;;;;;;3.60;1.10;;;4.20;99.90;;;;;;5111338;28;20231;-75
2024/01/27 06:34:15;;;;;;;7.53;1.57;;;4.20;99.90;;;;;;5113254;28;20195;-75
2024/01/27 06:36:40;;;;;;;4.17;1.43;;;4.20;99.90;;;;;;5094537;28;20206;-75
2024/01/27 06:39:07;;;;;;;6.13;2.10;;;4.20;99.90;;;;;;5091103;28;20690;-75
2024/01/27 06:41:33;;;;;;;3.58;1.10;;;4.10;99.90;;;;;;5109645;28;20178;-75
2024/01/27 06:43:59;;;;;;;5.10;1.67;;;4.10;99.90;;;;;;5094779;28;20711;-75
2024/01/27 06:46:40;;;;;;;5.37;1.43;;;4.10;99.90;;;;;;5094054;28;20708;-75
2024/01/27 06:49:08;;;;;;;5.47;1.60;;;4.10;99.90;;;;;;5083183;28;20176;-75
2024/01/27 06:51:34;;;;;;;7.50;1.73;;;4.10;99.90;;;;;;5090026;28;20207;-74
2024/01/27 06:53:59;;;;;;;5.63;1.67;;;4.10;99.90;;;;;;5104426;28;20637;-75
2024/01/27 06:56:25;;;;;;;5.20;1.83;;;4.10;99.90;;;;;;5093655;28;21157;-74
2024/01/27 06:58:51;;;;;;;6.77;2.10;;;4.10;99.90;;;;;;5078254;28;20179;-77
2024/01/27 07:01:17;;;;;;;6.50;2.27;;;4.10;99.90;;;;;;5119451;28;20577;-77
2024/01/27 07:03:44;;;;;;;9.15;2.25;;;4.10;99.90;;;;;;5094696;28;20180;-75
2024/01/27 07:06:10;;;;;;;4.63;1.73;;;4.10;99.90;;;;;;5080517;28;20185;-76
2024/01/27 07:08:35;;;;;;;5.07;3.37;;;4.10;99.90;;;;;;5112484;28;20203;-75
2024/01/27 07:11:07;;;;;;;6.50;1.57;;;4.10;99.90;;;;;;5094498;28;20211;-77
2024/01/27 07:13:33;;;;;;;6.22;1.80;;;4.10;99.90;;;;;;5112435;28;20171;-76
2024/01/27 07:15:59;;;;;;;5.27;2.60;;;4.20;99.90;;;;;;5094065;28;20167;-76
2024/01/27 07:18:25;;;;;;;8.43;2.53;;;4.20;99.90;;;;;;5094143;28;20604;-76
2024/01/27 07:20:54;;;;;;;7.53;3.58;;;4.10;99.90;;;;;;5094820;28;20171;-76
2024/01/27 07:23:20;;;;;;;8.40;2.50;;;4.10;99.90;;;;;;5074517;28;20171;-76
2024/01/27 07:25:46;;;;;;;9.68;4.22;;;4.10;99.90;;;;;;5078557;28;20186;-76
2024/01/27 07:28:12;;;;;;;6.80;2.87;;;4.10;99.90;;;;;;5112236;28;20551;-76
2024/01/27 07:30:38;;;;;;;8.00;2.30;;;4.10;99.90;;;;;;5085244;28;20230;-77
2024/01/27 07:33:04;;;;;;;6.50;2.42;;;4.10;99.90;;;;;;5104541;28;21017;-77
2024/01/27 07:35:33;;;;;;;9.32;2.70;;;4.10;99.90;;;;;;5068742;28;20798;-77
2024/01/27 07:37:59;;;;;;;9.03;2.70;;;4.10;99.90;;;;;;5092676;28;20360;-76
2024/01/27 07:40:24;;;;;;;8.00;2.37;;;4.20;99.90;;;;;;5093796;28;20539;-77
2024/01/27 07:42:50;;;;;;;4.20;2.13;;;4.20;99.90;;;;;;5096724;28;20228;-78
2024/01/27 07:45:16;;;;;;;10.43;2.90;;;4.20;99.90;;;;;;5093744;28;20171;-76
2024/01/27 07:47:41;;;;;;;9.00;2.20;;;4.20;99.90;;;;;;5093773;28;20210;-76
2024/01/27 07:50:09;;;;;;;8.27;3.20;;;4.20;99.90;;;;;;5110987;28;20632;-76
2024/01/27 07:52:35;;;;;;;6.97;2.90;;;4.20;99.90;;;;;;5093547;28;20198;-76
2024/01/27 07:55:02;;;;;;;4.30;2.55;;;4.20;99.90;;;;;;5093884;28;20222;-76
2024/01/27 07:57:28;;;;;;;7.95;2.42;;;4.20;99.90;;;;;;5110596;28;20191;-75
2024/01/27 07:59:54;;;;;;;6.10;1.77;;;4.20;99.90;;;;;;5092768;28;20640;-76
2024/01/27 08:02:20;;;;;;;9.93;2.10;;;4.20;99.90;;;;;;5093794;28;20581;-77
2024/01/27 08:04:45;;;;;;;7.97;2.13;;;4.20;99.90;;;;;;5093445;28;20584;-76
2024/01/27 08:07:14;;;;;;;4.37;1.80;;;4.30;99.90;;;;;;5093125;28;20668;-76
2024/01/27 08:09:40;;;;;;;6.15;1.80;;;4.20;99.90;;;;;;5075427;28;20644;-76
2024/01/27 08:12:06;;;;;;;6.27;2.43;;;4.30;99.90;;;;;;5092604;28;20218;-76
2024/01/27 08:14:35;;;;;;;9.02;2.00;;;4.30;99.90;;;;;;5111442;28;20634;-77
2024/01/27 08:17:03;;;;;;;4.20;1.50;;;4.30;99.90;;;;;;5093018;28;20675;-76
2024/01/27 08:19:29;;;;;;;8.20;2.38;;;4.40;99.90;;;;;;5094965;28;20170;-76
2024/01/27 08:21:54;;;;;;;7.50;1.97;;;4.40;99.90;;;;;;5111285;28;20608;-77
2024/01/27 08:24:20;;;;;;;7.40;1.57;;;4.40;99.90;;;;;;5076195;28;20194;-77
2024/01/27 08:26:48;;;;;;;4.07;1.40;;;4.50;99.90;;;;;;5092667;28;20226;-77
2024/01/27 08:29:14;;;;;;;3.45;1.70;;;4.50;99.90;;;;;;5092378;28;20183;-77
2024/01/27 08:31:39;;;;;;;5.53;2.03;;;4.60;99.90;;;;;;5089669;28;20207;-77
2024/01/27 08:34:05;;;;;;;9.30;1.40;;;4.60;99.90;;;;;;5093013;28;20650;-78
2024/01/27 08:36:32;;;;;;;6.57;1.90;;;4.70;99.90;;;;;;5092278;28;20159;-77
2024/01/27 08:38:57;;;;;;;9.05;1.70;;;4.80;99.90;;;;;;5110652;28;20661;-77
2024/01/27 08:41:24;;;;;;;4.23;1.90;;;4.90;99.90;;;;;;5087682;28;20233;-77
2024/01/27 08:43:49;;;;;;;5.32;1.65;;;4.90;99.90;;;;;;5087039;28;20270;-76
2024/01/27 08:46:17;;;;;;;5.90;1.63;;;5.00;99.90;;;;;;5092919;28;20257;-76
2024/01/27 08:48:43;;;;;;;10.73;2.30;;;5.00;99.90;;;;;;5110918;28;20207;-77
2024/01/27 08:51:12;;;;;;;6.88;1.55;;;5.10;99.90;;;;;;5109836;28;20191;-77
2024/01/27 08:53:38;;;;;;;7.47;2.13;;;5.10;99.90;;;;;;5075466;28;20174;-76
2024/01/27 08:56:04;;;;;;;7.47;2.25;;;5.10;99.90;;;;;;5096359;28;20189;-77
2024/01/27 08:58:32;;;;;;;7.28;2.15;;;5.20;99.90;;;;;;5104810;28;20195;-77
2024/01/27 09:01:00;;;;;;;8.10;2.88;;;5.20;99.90;;;;;;5108829;28;20182;-76
2024/01/27 09:03:26;;;;;;;9.50;2.35;;;5.30;99.90;;;;;;5110562;28;20192;-75
2024/01/27 09:05:52;;;;;;;8.83;2.10;;;5.30;99.90;;;;;;5089229;28;20183;-75
2024/01/27 09:08:17;;;;;;;6.00;1.83;;;5.30;99.90;;;;;;5088819;28;20192;-76
2024/01/27 09:10:43;;;;;;;5.70;1.60;;;5.30;99.90;;;;;;5095852;28;20647;-75
2024/01/27 09:13:09;;;;;;;6.10;1.60;;;5.40;99.90;;;;;;5095964;28;20167;-77
2024/01/27 09:15:34;;;;;;;6.10;2.00;;;5.50;99.90;;;;;;5096339;28;20655;-75
2024/01/27 09:18:00;;;;;;;4.57;1.83;;;5.60;99.90;;;;;;5095827;28;20593;-76
2024/01/27 09:20:26;;;;;;;8.15;1.88;;;5.70;99.90;;;;;;5075495;28;20172;-76
2024/01/27 09:22:52;;;;;;;11.00;2.27;;;5.80;99.90;;;;;;5114990;28;20521;-76
2024/01/27 09:25:17;;;;;;;5.67;1.80;;;5.90;99.90;;;;;;5114771;28;20269;-76
2024/01/27 09:27:43;;;;;;;7.10;2.73;;;6.00;99.90;;;;;;5106180;28;20195;-77
2024/01/27 09:30:09;;;;;;;7.80;2.20;;;6.00;99.90;;;;;;5095416;28;20179;-77
2024/01/27 09:32:39;;;;;;;5.00;2.25;;;6.10;99.90;;;;;;5097731;28;20186;-77
2024/01/27 09:35:05;;;;;;;6.47;3.00;;;6.20;99.90;;;;;;5096907;28;20175;-75
2024/01/27 09:37:31;;;;;;;3.42;1.98;;;6.20;99.90;;;;;;5095290;28;20214;-76
2024/01/27 09:40:00;;;;;;;6.43;1.50;;;6.30;99.90;;;;;;5112527;28;20257;-76
2024/01/27 09:42:26;;;;;;;6.63;2.55;;;6.40;99.90;;;;;;5085677;28;20250;-76
2024/01/27 09:44:56;;;;;;;5.93;2.27;;;6.50;99.90;;;;;;5110470;28;20258;-76
2024/01/27 09:47:22;;;;;;;7.15;1.80;;;6.60;99.90;;;;;;5095480;28;20616;-76
2024/01/27 09:49:51;;;;;;;8.70;2.45;;;6.70;99.90;;;;;;5100156;28;20210;-77
2024/01/27 09:52:16;;;;;;;5.05;1.90;;;6.70;99.90;;;;;;5066480;28;20218;-75
2024/01/27 09:54:42;;;;;;;7.70;2.10;;;6.80;99.90;;;;;;5083468;28;20683;-76
2024/01/27 09:57:11;;;;;;;3.80;1.43;;;7.00;99.90;;;;;;5090577;28;20183;-75
2024/01/27 09:59:42;;;;;;;5.25;2.05;;;7.10;99.90;;;;;;5073481;28;20206;-76
2024/01/27 10:02:11;;;;;;;6.30;1.83;;;7.30;99.90;;;;;;5108893;27;20178;-75
2024/01/27 10:04:38;;;;;;;7.15;1.63;;;7.40;99.90;;;;;;5089637;28;20178;-75
2024/01/27 10:07:04;;;;;;;8.77;2.00;;;7.60;99.90;;;;;;5068814;28;20223;-75
2024/01/27 10:09:30;;;;;;;7.70;2.50;;;7.70;99.90;;;;;;5112853;28;20906;-75
2024/01/27 10:11:57;;;;;;;3.90;1.40;;;7.80;99.90;;;;;;5115023;28;20233;-75
2024/01/27 10:14:23;;;;;;;6.03;2.10;;;7.90;99.90;;;;;;5108891;28;20164;-75
2024/01/27 10:16:48;;;;;;;8.30;2.50;;;8.00;99.90;;;;;;5100928;28;20191;-75
2024/01/27 10:19:19;;;;;;;7.20;2.53;;;8.10;99.90;;;;;;5077543;28;20486;-75
2024/01/27 10:21:46;;;;;;;5.38;1.58;;;8.10;99.90;;;;;;5075952;28;20285;-76
2024/01/27 10:24:12;;;;;;;8.10;2.10;;;8.30;99.90;;;;;;5094792;28;20175;-76
2024/01/27 10:26:38;;;;;;;5.88;1.63;;;8.30;99.90;;;;;;5077689;28;20693;-75
2024/01/27 10:29:04;;;;;;;6.87;2.27;;;8.40;99.90;;;;;;5077303;28;20178;-76
2024/01/27 10:31:31;;;;;;;11.60;1.80;;;8.50;99.90;;;;;;5113385;28;20632;-76
2024/01/27 10:33:57;;;;;;;6.68;1.42;;;8.50;99.90;;;;;;5094739;28;20991;-76
2024/01/27 10:36:24;;;;;;;6.63;1.77;;;8.60;99.90;;;;;;5112827;28;20812;-75
2024/01/27 10:38:50;;;;;;;7.22;2.00;;;8.60;99.90;;;;;;5091078;28;20168;-75
2024/01/27 10:41:27;;;;;;;3.57;1.40;;;8.70;99.90;;;;;;5112570;28;20166;-75
2024/01/27 10:43:53;;;;;;;6.00;1.70;;;8.70;99.90;;;;;;5094848;28;20273;-75
2024/01/27 10:46:23;;;;;;;7.80;1.90;;;8.80;99.90;;;;;;5113253;28;20178;-75
2024/01/27 10:48:52;;;;;;;5.55;1.52;;;8.90;99.90;;;;;;5081079;28;20183;-75
2024/01/27 10:51:37;;;;;;;3.53;1.58;;;8.90;99.90;;;;;;5091098;28;20200;-74
2024/01/27 10:54:03;;;;;;;8.38;2.55;;;9.00;99.90;;;;;;5094721;28;20269;-74
2024/01/27 10:56:33;;;;;;;7.78;2.40;;;9.00;99.90;;;;;;5112535;28;20678;-75
2024/01/27 10:58:59;;;;;;;9.52;1.80;;;9.00;99.90;;;;;;5093971;28;20190;-74
2024/01/27 11:01:27;;;;;;;7.20;2.40;;;9.10;99.90;;;;;;5112780;28;20175;-74
2024/01/27 11:03:55;;;;;;;7.88;2.25;;;9.20;99.90;;;;;;5090723;28;20186;-74
2024/01/27 11:06:22;;;;;;;8.63;2.30;;;9.20;99.90;;;;;;5104065;28;20171;-74
2024/01/27 11:08:52;;;;;;;12.50;2.30;;;9.30;99.90;;;;;;5090458;28;20183;-74
2024/01/27 11:11:19;;;;;;;9.02;2.80;;;9.30;99.90;;;;;;5112582;28;20342;-74
2024/01/27 11:13:47;;;;;;;8.55;2.97;;;9.30;99.90;;;;;;5077630;28;20167;-74
2024/01/27 11:16:17;;;;;;;7.28;2.50;;;9.30;99.90;;;;;;5112150;28;20183;-74
2024/01/27 11:18:44;;;;;;;11.93;2.00;;;9.30;99.90;;;;;;5111695;28;20558;-74
2024/01/27 11:21:17;;;;;;;5.85;1.83;;;9.30;99.90;;;;;;5093769;28;20214;-74
2024/01/27 11:23:44;;;;;;;9.82;3.17;;;9.30;99.90;;;;;;5053932;28;20180;-74
2024/01/27 11:26:14;;;;;;;11.38;3.63;;;9.30;99.90;;;;;;5061080;28;20183;-75
2024/01/27 11:28:40;;;;;;;8.90;3.10;;;9.30;99.90;;;;;;5076479;28;20269;-74
2024/01/27 11:31:07;;;;;;;8.20;3.10;;;9.30;99.90;;;;;;5068366;28;20202;-75
2024/01/27 11:33:33;;;;;;;9.57;3.72;;;9.40;99.90;;;;;;5090236;28;20268;-75
2024/01/27 11:36:03;;;;;;;8.83;3.00;;;9.30;99.90;;;;;;5076327;28;20214;-75
2024/01/27 11:38:30;;;;;;;8.20;3.10;;;9.40;99.90;;;;;;5072664;28;20621;-75
2024/01/27 11:40:57;;;;;;;7.72;3.28;;;9.40;99.90;;;;;;5073412;28;20218;-75
2024/01/27 11:43:22;;;;;;;6.82;2.20;;;9.30;99.90;;;;;;5103842;28;20202;-75
2024/01/27 11:45:56;;;;;;;9.00;2.70;;;9.40;99.90;;;;;;5076498;28;20206;-75
2024/01/27 11:48:22;;;;;;;11.32;4.30;;;9.40;99.90;;;;;;5073235;28;20191;-75
2024/01/27 11:50:48;;;;;;;6.25;2.40;;;9.40;99.90;;;;;;5106621;28;20199;-75
2024/01/27 11:53:14;;;;;;;10.90;3.23;;;9.40;99.90;;;;;;5093433;28;20177;-75
2024/01/27 11:55:39;;;;;;;8.90;2.60;;;9.40;99.90;;;;;;5093437;28;20530;-74
2024/01/27 11:58:05;;;;;;;5.50;2.87;;;9.40;99.90;;;;;;5076190;28;20210;-74
2024/01/27 12:00:31;;;;;;;9.70;3.90;;;9.40;99.90;;;;;;5089459;28;20625;-74
2024/01/27 12:02:56;;;;;;;9.70;2.70;;;9.40;99.90;;;;;;5094845;28;20197;-76
2024/01/27 12:05:22;;;;;;;8.87;2.70;;;9.40;99.90;;;;;;5093122;28;20193;-74
2024/01/27 12:07:48;;;;;;;11.17;2.77;;;9.40;99.90;;;;;;5111199;28;20230;-75
2024/01/27 12:10:14;;;;;;;7.00;2.70;;;9.40;99.90;;;;;;5074411;28;20961;-75
2024/01/27 12:12:40;;;;;;;7.40;2.28;;;9.40;99.90;;;;;;5089786;28;20180;-74
2024/01/27 12:15:06;;;;;;;6.17;2.40;;;9.50;99.90;;;;;;5073950;28;20168;-75
2024/01/27 12:17:32;;;;;;;5.97;3.17;;;9.50;99.90;;;;;;5075222;28;20213;-75
2024/01/27 12:19:57;;;;;;;7.40;3.50;;;9.60;99.90;;;;;;5092483;28;20175;-75
2024/01/27 12:22:28;;;;;;;5.97;2.60;;;9.60;99.90;;;;;;5111090;28;20183;-75
2024/01/27 12:24:54;;;;;;;7.85;3.28;;;9.70;99.90;;;;;;5089758;28;20187;-75
2024/01/27 12:27:22;;;;;;;11.65;2.50;;;9.70;99.90;;;;;;5110511;28;20186;-75
2024/01/27 12:29:49;;;;;;;8.07;2.60;;;9.70;99.90;;;;;;5088884;28;20183;-74
2024/01/27 12:32:15;;;;;;;5.85;2.53;;;9.80;99.90;;;;;;5092494;28;20828;-74
2024/01/27 12:34:42;;;;;;;8.32;2.22;;;9.80;99.90;;;;;;5089517;28;20198;-74
2024/01/27 12:37:11;;;;;;;6.25;2.25;;;9.80;99.90;;;;;;5092371;28;20694;-74
2024/01/27 12:39:37;;;;;;;9.25;3.65;;;9.90;99.90;;;;;;5111941;28;20171;-74
2024/01/27 12:42:04;;;;;;;12.55;4.55;;;9.80;99.90;;;;;;5110926;28;20571;-75
2024/01/27 12:44:30;;;;;;;11.18;3.35;;;9.80;99.90;;;;;;5092373;28;20171;-74
2024/01/27 12:46:57;;;;;;;9.93;4.17;;;9.80;99.90;;;;;;5110679;28;20195;-74
2024/01/27 12:49:23;;;;;;;6.80;2.80;;;9.80;99.90;;;;;;5110325;28;20198;-74
2024/01/27 12:51:49;;;;;;;11.52;3.28;;;9.90;99.90;;;;;;5111277;28;20199;-78